createdAt,value
2019-02-06T00:01:49.877Z,-4.80
2019-02-06T00:04:24.044Z,-4.80
2019-02-06T00:06:57.184Z,-4.80
2019-02-06T00:09:31.805Z,-4.80
2019-02-06T00:12:05.507Z,-4.80
2019-02-06T00:14:37.227Z,-5.00
2019-02-06T00:17:08.010Z,-5.10
2019-02-06T00:19:39.186Z,-5.20
2019-02-06T00:22:13.329Z,-5.30
2019-02-06T00:24:47.249Z,-5.30
2019-02-06T00:27:22.028Z,-5.30
2019-02-06T00:29:56.014Z,-5.30
2019-02-06T00:32:31.723Z,-5.30
2019-02-06T00:35:06.543Z,-5.30
2019-02-06T00:37:40.362Z,-5.40
2019-02-06T00:40:10.774Z,-5.40
2019-02-06T00:42:43.822Z,-5.50
2019-02-06T00:45:22.847Z,-5.50
2019-02-06T00:47:53.704Z,-5.60
2019-02-06T00:50:27.736Z,-5.60
2019-02-06T00:53:01.522Z,-5.70
2019-02-06T00:55:37.233Z,-5.70
2019-02-06T00:58:11.940Z,-5.80
2019-02-06T01:00:49.000Z,-5.90
2019-02-06T01:03:23.589Z,-6.00
2019-02-06T01:05:59.436Z,-6.10
2019-02-06T01:08:30.160Z,-6.20
2019-02-06T01:11:00.407Z,-6.30
2019-02-06T01:13:31.858Z,-6.30
2019-02-06T01:16:04.974Z,-6.30
2019-02-06T01:18:39.123Z,-6.30
2019-02-06T01:21:13.707Z,-6.30
2019-02-06T01:23:47.280Z,-6.30
2019-02-06T01:26:21.102Z,-6.30
2019-02-06T01:28:54.319Z,-6.30
2019-02-06T01:31:28.077Z,-6.40
2019-02-06T01:34:00.937Z,-6.30
2019-02-06T01:36:33.599Z,-6.30
2019-02-06T01:39:10.975Z,-6.30
2019-02-06T01:41:46.009Z,-6.30
2019-02-06T01:44:21.914Z,-6.20
2019-02-06T01:46:55.686Z,-6.30
2019-02-06T01:49:30.335Z,-6.20
2019-02-06T01:52:05.000Z,-6.20
2019-02-06T01:54:37.298Z,-6.20
2019-02-06T01:57:08.663Z,-6.20
2019-02-06T01:59:39.697Z,-6.10
2019-02-06T02:02:13.983Z,-6.20
2019-02-06T02:04:48.098Z,-6.20
2019-02-06T02:07:23.786Z,-6.20
2019-02-06T02:09:57.947Z,-6.30
2019-02-06T02:12:28.959Z,-6.30
2019-02-06T02:15:06.467Z,-6.40
2019-02-06T02:17:41.321Z,-6.50
2019-02-06T02:20:19.302Z,-6.60
2019-02-06T02:22:54.412Z,-6.70
2019-02-06T02:25:27.875Z,-6.90
2019-02-06T02:28:03.147Z,-7.10
2019-02-06T02:30:45.490Z,-7.20
2019-02-06T02:33:18.452Z,-7.20
2019-02-06T02:35:49.256Z,-7.30
2019-02-06T02:38:21.311Z,-7.30
2019-02-06T02:40:55.815Z,-7.30
2019-02-06T02:43:27.479Z,-7.30
2019-02-06T02:46:00.960Z,-7.30
2019-02-06T02:48:34.724Z,-7.30
2019-02-06T02:51:07.692Z,-7.30
2019-02-06T02:53:38.789Z,-7.30
2019-02-06T02:56:13.946Z,-7.30
2019-02-06T02:58:47.503Z,-7.40
2019-02-06T03:01:40.023Z,-7.30
2019-02-06T03:04:36.190Z,-7.40
2019-02-06T03:07:06.853Z,-7.50
2019-02-06T03:09:39.502Z,-7.70
2019-02-06T03:12:09.194Z,-7.80
2019-02-06T03:14:47.138Z,-7.90
2019-02-06T03:17:17.203Z,-8.00
2019-02-06T03:19:48.812Z,-8.00
2019-02-06T03:22:20.137Z,-8.10
2019-02-06T03:24:50.219Z,-8.10
2019-02-06T03:27:23.817Z,-8.20
2019-02-06T03:29:57.911Z,-8.20
2019-02-06T03:32:33.355Z,-8.30
2019-02-06T03:35:09.947Z,-8.30
2019-02-06T03:37:46.346Z,-8.40
2019-02-06T03:40:19.756Z,-8.40
2019-02-06T03:42:52.839Z,-8.50
2019-02-06T03:45:26.631Z,-8.60
2019-02-06T03:48:02.134Z,-8.70
2019-02-06T03:50:38.245Z,-8.70
2019-02-06T03:53:09.990Z,-8.80
2019-02-06T03:55:43.936Z,-8.90
2019-02-06T03:58:17.591Z,-8.90
2019-02-06T04:00:51.407Z,-8.90
2019-02-06T04:03:23.718Z,-9.00
2019-02-06T04:05:57.048Z,-9.00
2019-02-06T04:08:31.659Z,-9.10
2019-02-06T04:11:04.798Z,-9.10
2019-02-06T04:13:38.372Z,-9.10
2019-02-06T04:16:08.847Z,-9.20
2019-02-06T04:18:40.838Z,-9.20
2019-02-06T04:21:13.735Z,-9.20
2019-02-06T04:23:48.129Z,-9.30
2019-02-06T04:26:18.693Z,-9.30
2019-02-06T04:28:48.395Z,-9.40
2019-02-06T04:31:19.129Z,-9.40
2019-02-06T04:33:48.938Z,-9.40
2019-02-06T04:36:21.643Z,-9.50
2019-02-06T04:38:52.658Z,-9.50
2019-02-06T04:41:23.178Z,-9.60
2019-02-06T04:43:52.922Z,-9.50
2019-02-06T04:46:32.552Z,-9.60
2019-02-06T04:49:06.061Z,-9.60
2019-02-06T04:51:41.128Z,-9.60
2019-02-06T04:54:14.237Z,-9.60
2019-02-06T04:56:48.299Z,-9.70
2019-02-06T04:59:22.887Z,-9.70
2019-02-06T05:01:57.487Z,-9.80
2019-02-06T05:04:33.888Z,-9.80
2019-02-06T05:07:18.845Z,-9.80
2019-02-06T05:09:46.590Z,-9.80
2019-02-06T05:12:20.721Z,-9.80
2019-02-06T05:14:56.675Z,-9.90
2019-02-06T05:17:34.829Z,-9.90
2019-02-06T05:20:10.879Z,-9.90
2019-02-06T05:22:41.958Z,-10.00
2019-02-06T05:25:14.787Z,-10.00
2019-02-06T05:27:48.963Z,-10.10
2019-02-06T05:30:23.407Z,-10.10
2019-02-06T05:32:58.022Z,-10.20
2019-02-06T05:35:30.319Z,-10.20
2019-02-06T05:38:03.508Z,-10.20
2019-02-06T05:40:36.171Z,-10.30
2019-02-06T05:43:10.183Z,-10.30
2019-02-06T05:45:43.323Z,-10.30
2019-02-06T05:48:14.869Z,-10.30
2019-02-06T05:50:45.226Z,-10.30
2019-02-06T05:53:19.881Z,-10.30
2019-02-06T05:55:50.154Z,-10.40
2019-02-06T05:58:24.969Z,-10.40
2019-02-06T06:00:57.215Z,-10.40
2019-02-06T06:03:31.089Z,-10.40
2019-02-06T06:06:04.899Z,-10.40
2019-02-06T06:08:38.556Z,-10.40
2019-02-06T06:11:13.089Z,-10.40
2019-02-06T06:13:47.388Z,-10.40
2019-02-06T06:16:18.709Z,-10.40
2019-02-06T06:18:51.316Z,-10.40
2019-02-06T06:21:26.979Z,-10.50
2019-02-06T06:23:58.863Z,-10.40
2019-02-06T06:26:29.102Z,-10.40
2019-02-06T06:29:02.027Z,-10.40
2019-02-06T06:31:35.762Z,-10.50
2019-02-06T06:34:07.328Z,-10.40
2019-02-06T06:36:43.030Z,-10.50
2019-02-06T06:39:16.777Z,-10.50
2019-02-06T06:41:51.444Z,-10.50
2019-02-06T06:44:27.083Z,-10.50
2019-02-06T06:46:58.815Z,-10.50
2019-02-06T06:49:33.355Z,-10.50
2019-02-06T06:52:05.556Z,-10.50
2019-02-06T06:54:38.277Z,-10.50
2019-02-06T06:57:12.513Z,-10.50
2019-02-06T06:59:45.430Z,-10.50
2019-02-06T07:02:17.714Z,-10.50
2019-02-06T07:04:52.799Z,-10.40
2019-02-06T07:07:26.479Z,-10.40
2019-02-06T07:10:04.003Z,-10.40
2019-02-06T07:12:37.147Z,-10.40
2019-02-06T07:15:12.266Z,-10.40
2019-02-06T07:17:42.822Z,-10.30
2019-02-06T07:20:14.174Z,-10.30
2019-02-06T07:22:44.643Z,-10.30
2019-02-06T07:25:17.998Z,-10.20
2019-02-06T07:27:50.503Z,-10.20
2019-02-06T07:30:31.650Z,-10.20
2019-02-06T07:33:04.367Z,-10.10
2019-02-06T07:35:37.545Z,-10.10
2019-02-06T07:38:22.321Z,-10.10
2019-02-06T07:40:49.257Z,-10.10
2019-02-06T07:43:22.831Z,-10.00
2019-02-06T07:45:53.412Z,-9.90
2019-02-06T07:48:24.010Z,-9.90
2019-02-06T07:50:55.027Z,-9.90
2019-02-06T07:53:27.270Z,-9.80
2019-02-06T07:56:02.917Z,-9.80
2019-02-06T07:58:33.774Z,-9.80
2019-02-06T08:01:04.072Z,-9.70
2019-02-06T08:03:37.195Z,-9.70
2019-02-06T08:06:09.447Z,-9.60
2019-02-06T08:08:42.512Z,-9.50
2019-02-06T08:11:15.674Z,-9.50
2019-02-06T08:13:51.834Z,-9.40
2019-02-06T08:16:22.963Z,-9.40
2019-02-06T08:18:57.606Z,-9.40
2019-02-06T08:21:30.373Z,-9.30
2019-02-06T08:24:02.518Z,-9.30
2019-02-06T08:26:36.363Z,-9.20
2019-02-06T08:29:10.935Z,-9.20
2019-02-06T08:31:45.962Z,-9.10
2019-02-06T08:34:18.233Z,-9.00
2019-02-06T08:36:49.331Z,-9.00
2019-02-06T08:39:19.775Z,-8.90
2019-02-06T08:41:51.373Z,-8.90
2019-02-06T08:44:22.838Z,-8.80
2019-02-06T08:46:54.996Z,-8.80
2019-02-06T08:49:28.011Z,-8.80
2019-02-06T08:52:01.201Z,-8.70
2019-02-06T08:54:36.709Z,-8.70
2019-02-06T08:57:11.294Z,-8.60
2019-02-06T08:59:43.788Z,-8.40
2019-02-06T09:02:17.377Z,-8.40
2019-02-06T09:04:55.849Z,-8.40
2019-02-06T09:07:27.111Z,-8.30
2019-02-06T09:10:03.103Z,-8.30
2019-02-06T09:12:35.405Z,-8.30
2019-02-06T09:15:09.455Z,-8.20
2019-02-06T09:17:43.191Z,-8.20
2019-02-06T09:20:20.395Z,-8.10
2019-02-06T09:22:54.479Z,-8.10
2019-02-06T09:25:27.400Z,-8.00
2019-02-06T09:28:01.262Z,-7.90
2019-02-06T09:30:36.311Z,-7.90
2019-02-06T09:33:09.419Z,-7.90
2019-02-06T09:35:43.245Z,-7.90
2019-02-06T09:38:17.351Z,-7.80
2019-02-06T09:40:50.955Z,-7.80
2019-02-06T09:43:23.954Z,-7.70
2019-02-06T09:45:57.248Z,-7.70
2019-02-06T09:48:28.508Z,-7.60
2019-02-06T09:51:01.313Z,-7.60
2019-02-06T09:53:35.021Z,-7.50
2019-02-06T09:56:09.950Z,-7.40
2019-02-06T09:58:44.925Z,-7.40
2019-02-06T10:01:21.409Z,-7.30
2019-02-06T10:03:55.179Z,-7.20
2019-02-06T10:06:29.543Z,-7.20
2019-02-06T10:08:59.859Z,-7.10
2019-02-06T10:11:29.363Z,-7.10
2019-02-06T10:14:05.920Z,-7.10
2019-02-06T10:16:39.083Z,-7.00
2019-02-06T10:19:12.197Z,-6.90
2019-02-06T10:21:45.762Z,-7.00
2019-02-06T10:24:19.335Z,-6.90
2019-02-06T10:26:53.280Z,-6.90
2019-02-06T10:29:27.985Z,-6.80
2019-02-06T10:32:01.537Z,-6.80
2019-02-06T10:34:34.094Z,-6.80
2019-02-06T10:37:06.114Z,-6.80
2019-02-06T10:39:39.414Z,-6.70
2019-02-06T10:42:15.232Z,-6.70
2019-02-06T10:44:49.909Z,-6.70
2019-02-06T10:47:24.253Z,-6.60
2019-02-06T10:49:58.325Z,-6.60
2019-02-06T10:52:32.035Z,-6.50
2019-02-06T10:55:05.204Z,-6.50
2019-02-06T10:57:39.851Z,-6.50
2019-02-06T11:00:20.735Z,-6.50
2019-02-06T11:02:53.314Z,-6.40
2019-02-06T11:05:28.141Z,-6.40
2019-02-06T11:08:00.410Z,-6.40
2019-02-06T11:10:32.563Z,-6.30
2019-02-06T11:13:05.799Z,-6.30
2019-02-06T11:15:39.360Z,-6.20
2019-02-06T11:18:13.028Z,-6.20
2019-02-06T11:20:50.955Z,-6.10
2019-02-06T11:23:24.592Z,-6.10
2019-02-06T11:25:58.602Z,-6.00
2019-02-06T11:28:34.881Z,-5.90
2019-02-06T11:31:10.503Z,-5.80
2019-02-06T11:33:40.903Z,-5.70
2019-02-06T11:36:23.795Z,-5.50
2019-02-06T11:38:51.294Z,-5.40
2019-02-06T11:41:24.339Z,-5.30
2019-02-06T11:43:54.871Z,-5.10
2019-02-06T11:46:29.153Z,-5.00
2019-02-06T11:49:02.044Z,-4.90
2019-02-06T11:51:34.351Z,-4.70
2019-02-06T11:54:08.998Z,-4.60
2019-02-06T11:56:43.588Z,-4.50
2019-02-06T11:59:14.702Z,-4.50
2019-02-06T12:01:51.250Z,-4.40
2019-02-06T12:04:24.223Z,-4.40
2019-02-06T12:06:57.966Z,-4.40
2019-02-06T12:09:32.543Z,-4.30
2019-02-06T12:12:05.259Z,-4.30
2019-02-06T12:14:37.351Z,-4.30
2019-02-06T12:17:11.210Z,-4.30
2019-02-06T12:19:44.879Z,-4.40
2019-02-06T12:22:18.947Z,-4.40
2019-02-06T12:24:52.352Z,-4.40
2019-02-06T12:27:28.066Z,-4.40
2019-02-06T12:30:00.189Z,-4.50
2019-02-06T12:32:31.271Z,-4.50
2019-02-06T12:35:01.476Z,-4.60
2019-02-06T12:37:31.883Z,-4.60
2019-02-06T12:40:06.917Z,-4.60
2019-02-06T12:42:39.052Z,-4.60
2019-02-06T12:45:13.227Z,-4.60
2019-02-06T12:47:47.013Z,-4.60
2019-02-06T12:50:21.137Z,-4.60
2019-02-06T12:52:57.252Z,-4.50
2019-02-06T12:55:33.817Z,-4.50
2019-02-06T12:58:07.575Z,-4.40
2019-02-06T13:00:40.981Z,-4.30
2019-02-06T13:03:14.050Z,-4.30
2019-02-06T13:05:47.198Z,-4.30
2019-02-06T13:08:18.246Z,-4.20
2019-02-06T13:10:49.253Z,-4.20
2019-02-06T13:13:26.527Z,-4.30
2019-02-06T13:15:59.143Z,-4.30
2019-02-06T13:18:29.632Z,-4.30
2019-02-06T13:20:59.597Z,-4.40
2019-02-06T13:23:30.350Z,-4.40
2019-02-06T13:26:00.380Z,-4.50
2019-02-06T13:28:32.878Z,-4.50
2019-02-06T13:31:04.230Z,-4.60
2019-02-06T13:33:37.960Z,-4.60
2019-02-06T13:36:13.191Z,-4.60
2019-02-06T13:38:47.242Z,-4.60
2019-02-06T13:41:20.305Z,-4.60
2019-02-06T13:43:54.245Z,-4.70
2019-02-06T13:46:26.133Z,-4.70
2019-02-06T13:48:56.943Z,-4.70
2019-02-06T13:51:29.198Z,-4.70
2019-02-06T13:54:03.691Z,-4.70
2019-02-06T13:56:39.167Z,-4.70
2019-02-06T13:59:13.839Z,-4.70
2019-02-06T14:01:45.858Z,-4.70
2019-02-06T14:04:20.528Z,-4.60
2019-02-06T14:06:55.246Z,-4.60
2019-02-06T14:09:26.341Z,-4.50
2019-02-06T14:11:58.031Z,-4.50
2019-02-06T14:14:30.399Z,-4.60
2019-02-06T14:17:04.139Z,-4.50
2019-02-06T14:19:39.649Z,-4.50
2019-02-06T14:22:14.241Z,-4.50
2019-02-06T14:24:57.346Z,-4.50
2019-02-06T14:27:38.182Z,-4.60
2019-02-06T14:30:47.230Z,-4.50
2019-02-06T14:33:59.593Z,-4.60
2019-02-06T14:37:28.037Z,-4.60
2019-02-06T14:40:35.626Z,-4.50
2019-02-06T14:43:33.763Z,-4.50
2019-02-06T14:46:57.567Z,-4.60
2019-02-06T14:50:31.435Z,-4.60
2019-02-06T14:53:28.321Z,-4.60
2019-02-06T14:56:29.510Z,-4.60
2019-02-06T14:59:54.366Z,-4.60
2019-02-06T15:03:25.625Z,-4.50
2019-02-06T15:06:47.619Z,-4.60
2019-02-06T15:09:54.789Z,-4.70
2019-02-06T15:13:21.059Z,-4.70
2019-02-06T15:16:37.087Z,-4.70
2019-02-06T15:19:51.345Z,-4.70
2019-02-06T15:22:47.971Z,-4.80
2019-02-06T15:26:10.320Z,-4.90
2019-02-06T15:29:39.082Z,-5.00
2019-02-06T15:33:06.337Z,-5.10
2019-02-06T15:36:10.207Z,-5.30
2019-02-06T15:39:22.694Z,-5.40
2019-02-06T15:42:43.395Z,-5.40
2019-02-06T15:45:50.456Z,-5.50
2019-02-06T15:48:45.663Z,-5.40
2019-02-06T15:51:46.171Z,-5.30
2019-02-06T15:54:38.823Z,-5.20
2019-02-06T15:57:48.101Z,-5.10
2019-02-06T16:01:02.726Z,-5.10
2019-02-06T16:04:50.984Z,-4.90
2019-02-06T16:08:38.179Z,-4.90
2019-02-06T16:12:09.615Z,-4.80
2019-02-06T16:15:03.651Z,-4.70
2019-02-06T16:18:34.658Z,-4.60
2019-02-06T16:21:29.615Z,-4.50
2019-02-06T16:24:45.992Z,-4.40
2019-02-06T16:28:04.051Z,-4.30
2019-02-06T16:31:21.871Z,-4.20
2019-02-06T16:34:34.541Z,-4.10
2019-02-06T16:37:58.339Z,-4.00
2019-02-06T16:41:08.929Z,-3.90
2019-02-06T16:44:31.075Z,-3.80
2019-02-06T16:47:44.755Z,-3.70
2019-02-06T16:50:55.620Z,-3.50
2019-02-06T16:53:59.076Z,-3.50
2019-02-06T16:56:54.668Z,-3.40
2019-02-06T17:00:02.147Z,-3.40
2019-02-06T17:03:05.517Z,-3.30
2019-02-06T17:06:03.427Z,-3.30
2019-02-06T17:09:22.986Z,-3.20
2019-02-06T17:12:27.011Z,-3.20
2019-02-06T17:15:27.041Z,-3.10
2019-02-06T17:18:29.311Z,-3.10
2019-02-06T17:21:31.914Z,-3.00
2019-02-06T17:24:27.967Z,-3.00
2019-02-06T17:27:42.452Z,-2.90
2019-02-06T17:31:00.934Z,-2.90
2019-02-06T17:34:15.678Z,-2.90
2019-02-06T17:37:37.993Z,-2.90
2019-02-06T17:40:40.001Z,-2.80
2019-02-06T17:44:04.528Z,-2.70
2019-02-06T17:47:22.096Z,-2.70
2019-02-06T17:50:35.646Z,-2.60
2019-02-06T17:53:39.902Z,-2.50
2019-02-06T17:56:29.831Z,-2.40
2019-02-06T17:59:31.020Z,-2.30
2019-02-06T18:02:07.048Z,-2.30
2019-02-06T18:04:46.627Z,-2.20
2019-02-06T18:07:21.120Z,-2.20
2019-02-06T18:09:52.776Z,-2.10
2019-02-06T18:12:26.278Z,-2.00
2019-02-06T18:14:57.847Z,-2.00
2019-02-06T18:17:27.829Z,-1.90
2019-02-06T18:19:57.794Z,-1.90
2019-02-06T18:22:28.825Z,-1.80
2019-02-06T18:25:03.475Z,-1.80
2019-02-06T18:27:36.554Z,-1.80
2019-02-06T18:30:12.781Z,-1.70
2019-02-06T18:32:43.680Z,-1.70
2019-02-06T18:35:15.880Z,-1.60
2019-02-06T18:37:52.515Z,-1.60
2019-02-06T18:40:27.686Z,-1.60
2019-02-06T18:43:00.613Z,-1.60
2019-02-06T18:45:34.220Z,-1.50
2019-02-06T18:48:10.662Z,-1.50
2019-02-06T18:50:43.492Z,-1.40
2019-02-06T18:53:15.842Z,-1.40
2019-02-06T18:55:47.506Z,-1.30
2019-02-06T18:58:23.151Z,-1.30
2019-02-06T19:00:56.814Z,-1.20
2019-02-06T19:03:35.694Z,-1.20
2019-02-06T19:06:34.200Z,-1.10
2019-02-06T19:09:28.962Z,-1.10
2019-02-06T19:11:59.899Z,-1.00
2019-02-06T19:14:35.456Z,-0.90
2019-02-06T19:17:09.035Z,-0.90
2019-02-06T19:19:46.116Z,-0.90
2019-02-06T19:22:21.023Z,-0.90
2019-02-06T19:24:55.787Z,-0.80
2019-02-06T19:27:29.375Z,-0.70
2019-02-06T19:30:02.445Z,-0.70
2019-02-06T19:32:36.960Z,-0.60
2019-02-06T19:35:13.479Z,-0.60
2019-02-06T19:37:50.215Z,-0.60
2019-02-06T19:40:25.770Z,-0.50
2019-02-06T19:43:02.561Z,-0.50
2019-02-06T19:45:38.913Z,-0.40
2019-02-06T19:48:22.058Z,-0.40
2019-02-06T19:50:52.405Z,-0.40
2019-02-06T19:53:29.971Z,-0.40
2019-02-06T19:56:02.612Z,-0.40
2019-02-06T19:58:37.221Z,-0.40
2019-02-06T20:01:10.846Z,-0.40
2019-02-06T20:03:44.677Z,-0.30
2019-02-06T20:06:31.747Z,-0.30
2019-02-06T20:09:13.824Z,-0.30
2019-02-06T20:11:46.498Z,-0.30
2019-02-06T20:14:20.514Z,-0.20
2019-02-06T20:16:52.645Z,-0.20
2019-02-06T20:19:25.347Z,-0.20
2019-02-06T20:21:59.107Z,-0.20
2019-02-06T20:24:31.752Z,-0.20
2019-02-06T20:27:07.111Z,-0.10
2019-02-06T20:29:41.599Z,-0.10
2019-02-06T20:32:14.430Z,0.00
2019-02-06T20:34:51.012Z,0.00
2019-02-06T20:37:25.314Z,0.00
2019-02-06T20:39:58.928Z,0.00
2019-02-06T20:42:32.235Z,0.10
2019-02-06T20:45:05.343Z,0.10
2019-02-06T20:47:39.494Z,0.10
2019-02-06T20:50:22.978Z,0.10
2019-02-06T20:52:56.071Z,0.20
2019-02-06T20:55:30.268Z,0.20
2019-02-06T20:58:06.527Z,0.20
2019-02-06T21:00:42.597Z,0.20
2019-02-06T21:03:16.266Z,0.30
2019-02-06T21:05:50.178Z,0.30
2019-02-06T21:08:24.867Z,0.30
2019-02-06T21:10:57.567Z,0.20
2019-02-06T21:13:33.294Z,0.30
2019-02-06T21:16:05.991Z,0.30
2019-02-06T21:18:37.355Z,0.40
2019-02-06T21:21:09.492Z,0.40
2019-02-06T21:23:44.291Z,0.40
2019-02-06T21:26:18.795Z,0.50
2019-02-06T21:28:51.175Z,0.40
2019-02-06T21:31:21.718Z,0.50
2019-02-06T21:33:55.297Z,0.50
2019-02-06T21:36:29.799Z,0.50
2019-02-06T21:39:03.459Z,0.60
2019-02-06T21:41:39.299Z,0.60
2019-02-06T21:44:11.875Z,0.60
2019-02-06T21:46:44.863Z,0.70
2019-02-06T21:49:17.519Z,0.70
2019-02-06T21:51:48.920Z,0.70
2019-02-06T21:54:19.439Z,0.70
2019-02-06T21:56:50.060Z,0.80
2019-02-06T21:59:22.003Z,0.80
2019-02-06T22:01:56.578Z,0.80
2019-02-06T22:04:30.444Z,0.80
2019-02-06T22:07:03.072Z,0.80
2019-02-06T22:09:37.663Z,0.80
2019-02-06T22:12:10.728Z,0.80
2019-02-06T22:14:44.287Z,0.90
2019-02-06T22:17:18.864Z,0.90
2019-02-06T22:19:52.715Z,0.80
2019-02-06T22:22:27.911Z,0.90
2019-02-06T22:25:03.786Z,0.90
2019-02-06T22:27:36.863Z,0.90
2019-02-06T22:30:12.068Z,0.90
2019-02-06T22:32:45.962Z,1.00
2019-02-06T22:35:21.163Z,1.00
2019-02-06T22:37:57.539Z,1.10
2019-02-06T22:40:32.999Z,1.10
2019-02-06T22:43:09.161Z,1.00
2019-02-06T22:45:42.703Z,1.10
2019-02-06T22:48:17.251Z,1.10
2019-02-06T22:50:52.257Z,1.00
2019-02-06T22:53:25.599Z,1.00
2019-02-06T22:56:02.207Z,1.00
2019-02-06T22:58:36.352Z,1.10
2019-02-06T23:01:30.272Z,1.10
2019-02-06T23:04:13.280Z,1.10
2019-02-06T23:06:58.175Z,1.20
2019-02-06T23:09:38.975Z,1.10
2019-02-06T23:12:13.598Z,1.20
2019-02-06T23:14:46.368Z,1.10
2019-02-06T23:17:22.570Z,1.20
2019-02-06T23:19:56.387Z,1.20
2019-02-06T23:22:34.367Z,1.20
2019-02-06T23:25:08.424Z,1.20
2019-02-06T23:27:38.976Z,1.10
2019-02-06T23:30:16.771Z,1.10
2019-02-06T23:32:54.718Z,1.20
2019-02-06T23:35:29.279Z,1.20
2019-02-06T23:38:05.248Z,1.20
2019-02-06T23:40:39.440Z,1.20
2019-02-06T23:43:15.719Z,1.20
2019-02-06T23:45:49.151Z,1.20
2019-02-06T23:48:22.496Z,1.20
2019-02-06T23:50:57.572Z,1.20
2019-02-06T23:53:28.320Z,1.20
2019-02-06T23:55:58.407Z,1.20
2019-02-06T23:58:32.515Z,1.20
